Time;durP1;ratioP1;P1;durP2;ratioP2;P2;SDS_P1;SDS_P2;PMS_P1;PMS_P2;Temp;Humidity;BMP_temperature;BMP_pressure;BME280_temperature;BME280_humidity;BME280_pressure;Samples;Min_cycle;Max_cycle;Signal;HPM_P1;HPM_P2
2021/11/06 00:00:49;;;;;;;18.45;8.10;;;7.30;99.90;;;;;;5010800;28;20105;-63
2021/11/06 00:03:15;;;;;;;20.95;7.40;;;7.40;99.90;;;;;;5003983;28;20041;-63
2021/11/06 00:05:40;;;;;;;17.77;7.43;;;7.40;99.90;;;;;;4999305;28;20030;-63
2021/11/06 00:08:06;;;;;;;16.55;7.07;;;7.40;99.90;;;;;;4999664;28;20485;-63
2021/11/06 00:10:32;;;;;;;13.82;7.32;;;7.40;99.90;;;;;;5004684;28;20036;-63
2021/11/06 00:12:57;;;;;;;26.10;8.50;;;7.50;99.90;;;;;;5009783;28;20048;-63
2021/11/06 00:15:22;;;;;;;22.25;8.05;;;7.50;99.90;;;;;;5082036;28;20509;-63
2021/11/06 00:17:48;;;;;;;20.70;7.20;;;7.50;99.90;;;;;;5012513;28;20121;-63
2021/11/06 00:20:13;;;;;;;15.82;7.13;;;7.50;99.90;;;;;;5008104;28;20033;-63
2021/11/06 00:22:39;;;;;;;21.67;6.97;;;7.60;99.90;;;;;;5010959;28;20784;-63
2021/11/06 00:25:04;;;;;;;25.65;8.10;;;7.70;99.90;;;;;;5015340;28;20101;-63
2021/11/06 00:27:30;;;;;;;20.52;7.50;;;7.70;99.90;;;;;;5010712;28;20022;-64
2021/11/06 00:29:55;;;;;;;16.08;6.93;;;7.70;99.90;;;;;;5007019;28;20040;-63
2021/11/06 00:32:21;;;;;;;22.42;9.00;;;7.80;99.90;;;;;;5003736;28;20026;-63
2021/11/06 00:34:47;;;;;;;23.98;7.70;;;7.90;99.90;;;;;;4996880;28;20114;-63
2021/11/06 00:37:12;;;;;;;22.02;7.40;;;7.90;99.90;;;;;;5003025;28;20539;-63
2021/11/06 00:39:38;;;;;;;20.48;7.18;;;7.80;99.90;;;;;;5008771;28;20026;-63
2021/11/06 00:42:03;;;;;;;16.88;6.93;;;7.80;99.90;;;;;;5071843;28;20129;-63
2021/11/06 00:44:29;;;;;;;20.08;7.90;;;7.80;99.90;;;;;;4998685;28;20047;-63
2021/11/06 00:46:54;;;;;;;18.80;7.28;;;7.80;99.90;;;;;;5003753;28;20025;-63
2021/11/06 00:49:20;;;;;;;18.63;7.05;;;7.70;99.90;;;;;;5009110;28;20034;-63
2021/11/06 00:51:45;;;;;;;18.10;7.03;;;7.70;99.90;;;;;;5013937;28;20128;-63
2021/11/06 00:54:11;;;;;;;21.33;7.32;;;7.70;99.90;;;;;;5011549;28;20033;-63
2021/11/06 00:56:36;;;;;;;21.45;8.25;;;7.70;99.90;;;;;;5002307;28;20662;-63
2021/11/06 00:59:02;;;;;;;21.75;7.35;;;7.70;99.90;;;;;;5009397;28;20033;-63
2021/11/06 01:01:27;;;;;;;24.77;7.97;;;7.60;99.90;;;;;;5082447;28;20071;-63
2021/11/06 01:03:53;;;;;;;24.30;9.13;;;7.60;99.90;;;;;;5011283;28;20025;-63
2021/11/06 01:06:19;;;;;;;22.48;7.95;;;7.60;99.90;;;;;;5005627;28;20033;-63
2021/11/06 01:08:45;;;;;;;18.35;7.53;;;7.60;99.90;;;;;;4999800;28;20030;-63
2021/11/06 01:11:10;;;;;;;27.60;8.38;;;7.60;99.90;;;;;;5063943;28;20062;-63
2021/11/06 01:13:35;;;;;;;23.65;8.10;;;7.50;99.90;;;;;;5001702;28;20033;-63
2021/11/06 01:16:01;;;;;;;20.55;8.63;;;7.50;99.90;;;;;;5007490;28;20109;-62
2021/11/06 01:18:26;;;;;;;26.85;8.63;;;7.50;99.90;;;;;;5079738;28;20117;-63
2021/11/06 01:20:52;;;;;;;25.00;7.90;;;7.50;99.90;;;;;;5013799;28;20033;-63
2021/11/06 01:23:17;;;;;;;24.35;8.75;;;7.50;99.90;;;;;;5008144;28;20041;-63
2021/11/06 01:25:43;;;;;;;21.85;8.45;;;7.50;99.90;;;;;;5003391;28;20507;-63
2021/11/06 01:28:08;;;;;;;30.00;8.98;;;8.90;99.90;;;;;;4997604;28;20118;-64
2021/11/06 01:30:34;;;;;;;23.15;7.82;;;7.60;99.90;;;;;;4998689;28;20041;-63
2021/11/06 01:32:59;;;;;;;26.83;8.20;;;7.60;99.90;;;;;;5007497;28;20042;-63
2021/11/06 01:35:25;;;;;;;28.58;8.85;;;7.60;99.90;;;;;;5001479;28;20409;-63
2021/11/06 01:37:50;;;;;;;29.77;8.85;;;7.60;99.90;;;;;;4997412;28;20071;-63
2021/11/06 01:40:15;;;;;;;23.85;7.97;;;7.60;99.90;;;;;;5068494;28;20034;-63
2021/11/06 01:42:41;;;;;;;28.63;8.85;;;7.60;99.90;;;;;;5005037;28;20037;-63
2021/11/06 01:45:06;;;;;;;21.85;7.72;;;7.70;99.90;;;;;;5010955;28;20044;-63
2021/11/06 01:47:32;;;;;;;25.15;9.82;;;7.70;99.90;;;;;;5014290;28;20054;-63
2021/11/06 01:49:57;;;;;;;22.95;8.98;;;7.70;99.90;;;;;;5010714;28;20117;-63
2021/11/06 01:52:23;;;;;;;30.65;9.10;;;7.70;99.90;;;;;;5005762;28;20448;-63
2021/11/06 01:54:48;;;;;;;27.17;9.15;;;7.80;99.90;;;;;;4999458;28;20034;-63
2021/11/06 01:57:14;;;;;;;21.30;8.55;;;7.80;99.90;;;;;;4996891;28;20038;-63
2021/11/06 01:59:39;;;;;;;25.48;8.50;;;7.90;99.90;;;;;;5070168;28;20036;-63
2021/11/06 02:02:04;;;;;;;24.58;8.60;;;7.90;99.90;;;;;;5076130;28;20105;-63
2021/11/06 02:04:30;;;;;;;26.55;9.20;;;7.90;99.90;;;;;;5012912;28;20592;-63
2021/11/06 02:06:55;;;;;;;21.30;8.50;;;7.90;99.90;;;;;;5012678;28;20048;-63
2021/11/06 02:09:21;;;;;;;21.95;9.82;;;8.00;99.90;;;;;;5007606;28;20037;-63
2021/11/06 02:11:46;;;;;;;25.65;9.88;;;8.00;99.90;;;;;;5002689;28;20144;-63
2021/11/06 02:14:12;;;;;;;26.85;8.75;;;8.00;99.90;;;;;;5065049;28;20037;-63
2021/11/06 02:16:38;;;;;;;26.58;8.95;;;7.70;99.90;;;;;;5000494;28;20038;-63
2021/11/06 02:19:03;;;;;;;26.50;8.98;;;7.90;99.90;;;;;;5007420;28;20045;-63
2021/11/06 02:21:28;;;;;;;29.02;9.48;;;8.00;99.90;;;;;;5013740;28;20044;-63
2021/11/06 02:23:54;;;;;;;26.88;8.85;;;8.00;99.90;;;;;;5086754;28;20042;-63
2021/11/06 02:26:19;;;;;;;20.80;7.70;;;8.00;99.90;;;;;;5013753;28;20057;-63
2021/11/06 02:28:45;;;;;;;26.15;8.95;;;8.00;99.90;;;;;;5008959;28;20037;-63
2021/11/06 02:31:11;;;;;;;28.75;11.32;;;8.10;99.90;;;;;;5003514;28;20873;-63
2021/11/06 02:33:36;;;;;;;23.20;9.05;;;8.10;99.90;;;;;;4999135;28;20107;-63
2021/11/06 02:36:01;;;;;;;28.02;9.43;;;8.10;99.90;;;;;;5009588;28;20118;-63
2021/11/06 02:38:27;;;;;;;22.67;9.05;;;8.10;99.90;;;;;;5007242;28;20034;-63
2021/11/06 02:40:53;;;;;;;24.08;9.07;;;8.10;99.90;;;;;;5002453;28;20037;-63
2021/11/06 02:43:18;;;;;;;25.00;9.88;;;8.10;99.90;;;;;;5000879;28;20052;-62
2021/11/06 02:45:44;;;;;;;24.73;8.52;;;8.10;99.90;;;;;;5006625;28;20132;-63
2021/11/06 02:48:09;;;;;;;26.38;8.93;;;8.20;99.90;;;;;;5011281;28;20084;-63
2021/11/06 02:50:35;;;;;;;24.95;8.50;;;8.20;99.90;;;;;;5016382;28;20049;-63
2021/11/06 02:53:00;;;;;;;23.13;8.48;;;8.20;99.90;;;;;;5014513;28;20529;-63
2021/11/06 02:55:26;;;;;;;27.65;9.52;;;8.20;99.90;;;;;;5009642;28;20037;-63
2021/11/06 02:57:51;;;;;;;29.08;8.50;;;8.20;99.90;;;;;;5004158;28;20034;-63
2021/11/06 03:00:17;;;;;;;22.95;8.10;;;8.20;99.90;;;;;;5000257;28;20034;-63
2021/11/06 03:02:42;;;;;;;26.40;7.95;;;8.20;99.90;;;;;;5005618;28;20033;-63
2021/11/06 03:05:08;;;;;;;29.95;8.60;;;8.30;99.90;;;;;;5008647;28;20034;-63
2021/11/06 03:07:33;;;;;;;24.23;7.90;;;8.30;99.90;;;;;;5003280;28;20422;-63
2021/11/06 03:09:59;;;;;;;19.73;7.60;;;8.20;99.90;;;;;;4998890;28;20122;-63
2021/11/06 03:12:24;;;;;;;20.00;7.72;;;8.30;99.90;;;;;;5004461;28;20548;-63
2021/11/06 03:14:50;;;;;;;23.38;8.38;;;8.30;99.90;;;;;;5076648;28;20038;-63
2021/11/06 03:17:15;;;;;;;23.70;7.28;;;8.30;99.90;;;;;;5013769;28;20424;-62
2021/11/06 03:19:41;;;;;;;19.95;7.93;;;8.30;99.90;;;;;;5016194;28;20090;-63
2021/11/06 03:22:06;;;;;;;21.80;7.50;;;8.30;99.90;;;;;;5010802;28;20048;-63
2021/11/06 03:24:32;;;;;;;23.15;7.35;;;8.30;99.90;;;;;;5073106;28;20038;-63
2021/11/06 03:26:57;;;;;;;23.80;7.22;;;8.30;99.90;;;;;;5000445;28;20041;-63
2021/11/06 03:29:23;;;;;;;26.20;7.38;;;8.30;99.90;;;;;;5000990;28;20535;-63
2021/11/06 03:31:48;;;;;;;18.80;7.55;;;8.30;99.90;;;;;;5007179;28;20052;-63
2021/11/06 03:34:14;;;;;;;19.58;8.00;;;9.50;99.90;;;;;;5011641;28;20030;-63
2021/11/06 03:36:39;;;;;;;23.33;7.78;;;8.20;99.90;;;;;;5017194;28;20680;-63
2021/11/06 03:39:05;;;;;;;24.23;7.10;;;8.20;99.90;;;;;;5014665;28;20358;-63
2021/11/06 03:41:31;;;;;;;19.05;7.30;;;8.20;99.90;;;;;;5009199;28;20567;-63
2021/11/06 03:43:57;;;;;;;18.23;7.25;;;8.10;99.90;;;;;;5005067;28;20110;-63
2021/11/06 03:46:22;;;;;;;17.27;7.18;;;8.10;99.90;;;;;;5007683;28;20132;-64
2021/11/06 03:48:47;;;;;;;16.55;6.60;;;8.00;99.90;;;;;;5012959;28;20508;-63
2021/11/06 03:51:13;;;;;;;17.95;6.72;;;8.00;99.90;;;;;;5008436;28;20037;-64
2021/11/06 03:53:39;;;;;;;19.20;7.38;;;8.00;99.90;;;;;;5001326;28;20109;-64
2021/11/06 03:56:04;;;;;;;28.23;6.80;;;8.00;99.90;;;;;;4999343;28;20033;-63
2021/11/06 03:58:30;;;;;;;17.95;6.35;;;8.00;99.90;;;;;;5003021;28;20047;-63
2021/11/06 04:00:55;;;;;;;19.67;6.15;;;8.00;99.90;;;;;;5003009;28;20034;-63
2021/11/06 04:03:21;;;;;;;19.98;6.55;;;8.00;99.90;;;;;;4999514;28;20047;-63
2021/11/06 04:05:46;;;;;;;23.02;6.40;;;8.00;99.90;;;;;;4999205;28;20767;-63
2021/11/06 04:08:11;;;;;;;20.67;5.70;;;8.00;99.90;;;;;;5004980;28;20750;-63
2021/11/06 04:10:37;;;;;;;20.25;6.13;;;8.00;99.90;;;;;;5009522;28;20029;-62
2021/11/06 04:13:02;;;;;;;19.40;5.80;;;8.00;99.90;;;;;;5014791;28;20725;-63
2021/11/06 04:15:28;;;;;;;17.65;6.25;;;8.00;99.90;;;;;;5013436;28;20037;-63
2021/11/06 04:17:53;;;;;;;18.27;5.57;;;8.10;99.90;;;;;;5075634;28;20405;-62
2021/11/06 04:20:19;;;;;;;15.20;5.30;;;8.10;99.90;;;;;;5010879;28;20037;-63
2021/11/06 04:22:44;;;;;;;16.50;5.25;;;8.20;99.90;;;;;;5016380;28;20048;-62
2021/11/06 04:25:10;;;;;;;14.65;5.05;;;8.20;99.90;;;;;;5012620;28;20090;-63
2021/11/06 04:27:35;;;;;;;11.27;4.50;;;8.30;99.90;;;;;;5007855;28;20068;-63
2021/11/06 04:30:01;;;;;;;16.73;4.78;;;8.20;99.90;;;;;;5001709;28;20521;-63
2021/11/06 04:32:26;;;;;;;20.42;5.25;;;8.30;99.90;;;;;;5066597;28;20038;-63
2021/11/06 04:34:52;;;;;;;15.23;4.97;;;8.40;99.90;;;;;;5003084;28;20040;-63
2021/11/06 04:37:17;;;;;;;22.27;5.15;;;8.40;99.90;;;;;;5007523;28;20052;-63
2021/11/06 04:39:43;;;;;;;19.92;5.57;;;8.40;99.90;;;;;;5013898;28;20741;-63
2021/11/06 04:42:08;;;;;;;17.58;4.82;;;8.30;99.90;;;;;;5082297;28;20117;-62
2021/11/06 04:44:34;;;;;;;17.63;5.05;;;8.40;99.90;;;;;;5010164;28;20371;-63
2021/11/06 04:46:59;;;;;;;17.27;4.97;;;8.40;99.90;;;;;;5004411;28;20136;-63
2021/11/06 04:49:25;;;;;;;13.80;4.97;;;8.40;99.90;;;;;;4999482;28;20108;-63
2021/11/06 04:51:50;;;;;;;18.20;4.53;;;8.30;99.90;;;;;;5000333;28;20515;-63
2021/11/06 04:54:16;;;;;;;11.90;4.70;;;8.30;99.90;;;;;;5007709;28;20061;-63
2021/11/06 04:56:41;;;;;;;14.95;5.05;;;8.30;99.90;;;;;;5003786;28;20117;-63
2021/11/06 04:59:07;;;;;;;11.32;4.60;;;8.40;99.90;;;;;;4998971;28;20068;-63
2021/11/06 05:01:32;;;;;;;16.33;5.15;;;8.40;99.90;;;;;;5001396;28;20095;-63
2021/11/06 05:03:58;;;;;;;13.23;4.50;;;8.40;99.90;;;;;;5007101;28;20033;-63
2021/11/06 05:06:23;;;;;;;13.95;4.80;;;8.80;99.90;;;;;;5011831;28;20040;-63
2021/11/06 05:08:49;;;;;;;12.20;4.82;;;8.40;99.90;;;;;;5015217;28;20041;-62
2021/11/06 05:11:14;;;;;;;10.57;4.40;;;8.40;99.90;;;;;;5006043;28;20025;-63
2021/11/06 05:13:40;;;;;;;19.75;5.25;;;8.40;99.90;;;;;;5079830;28;20853;-63
2021/11/06 05:16:05;;;;;;;14.77;5.15;;;8.40;99.90;;;;;;5009905;28;20040;-63
2021/11/06 05:18:30;;;;;;;12.63;4.35;;;8.30;99.90;;;;;;5011683;28;20057;-63
2021/11/06 05:20:56;;;;;;;22.45;7.45;;;8.30;99.90;;;;;;5010415;28;20082;-62
2021/11/06 05:23:21;;;;;;;14.13;4.93;;;8.30;99.90;;;;;;5008391;28;20750;-63
2021/11/06 05:25:47;;;;;;;12.90;4.57;;;8.40;99.90;;;;;;4998996;28;20034;-62
2021/11/06 05:28:12;;;;;;;14.15;4.78;;;8.40;99.90;;;;;;5007540;28;20034;-63
2021/11/06 05:30:38;;;;;;;13.55;4.72;;;8.30;99.90;;;;;;5008811;28;20034;-63
2021/11/06 05:33:03;;;;;;;12.55;4.45;;;8.40;99.90;;;;;;5008948;28;20117;-62
2021/11/06 05:35:29;;;;;;;13.77;4.22;;;8.40;99.90;;;;;;5001669;28;20061;-63
2021/11/06 05:37:54;;;;;;;14.63;5.55;;;8.50;99.90;;;;;;5000114;28;20034;-63
2021/11/06 05:40:20;;;;;;;9.82;4.70;;;8.40;99.90;;;;;;5011861;28;20843;-63
2021/11/06 05:42:45;;;;;;;14.80;5.63;;;8.40;99.90;;;;;;5008825;28;20041;-62
2021/11/06 05:45:11;;;;;;;8.13;4.25;;;8.40;99.90;;;;;;4996680;28;20056;-62
2021/11/06 05:47:36;;;;;;;13.27;4.90;;;8.40;99.90;;;;;;5002111;28;20536;-62
2021/11/06 05:50:02;;;;;;;11.00;4.82;;;8.40;99.90;;;;;;5009355;28;20033;-63
2021/11/06 05:52:27;;;;;;;10.57;4.13;;;8.40;99.90;;;;;;5008198;28;20033;-63
2021/11/06 05:54:53;;;;;;;15.27;4.88;;;8.40;99.90;;;;;;5011742;28;20107;-62
2021/11/06 05:57:18;;;;;;;9.43;4.45;;;8.40;99.90;;;;;;5006639;28;20076;-63
2021/11/06 05:59:44;;;;;;;14.68;4.43;;;8.40;99.90;;;;;;5009496;28;20046;-62
2021/11/06 06:02:09;;;;;;;11.05;4.90;;;8.50;99.90;;;;;;5006890;28;20053;-62
2021/11/06 06:04:35;;;;;;;8.48;4.38;;;8.40;99.90;;;;;;5013921;28;20030;-62
2021/11/06 06:07:02;;;;;;;14.65;4.50;;;8.50;99.90;;;;;;5011017;28;20087;-62
2021/11/06 06:09:28;;;;;;;13.63;4.70;;;8.50;99.90;;;;;;5007409;28;20083;-63
2021/11/06 06:11:53;;;;;;;8.95;4.63;;;8.50;99.90;;;;;;5011223;28;20427;-63
2021/11/06 06:14:19;;;;;;;11.93;5.07;;;8.50;99.90;;;;;;5009605;28;20033;-63
2021/11/06 06:16:44;;;;;;;12.90;5.18;;;8.50;99.90;;;;;;5013322;28;20032;-63
2021/11/06 06:19:10;;;;;;;14.88;4.93;;;8.50;99.90;;;;;;5012914;28;20718;-63
2021/11/06 06:21:35;;;;;;;13.93;4.78;;;8.50;99.90;;;;;;5017104;28;20065;-63
2021/11/06 06:24:01;;;;;;;9.73;4.65;;;8.50;99.90;;;;;;5006424;28;20033;-63
2021/11/06 06:26:26;;;;;;;22.80;5.80;;;8.60;99.90;;;;;;5013109;28;20065;-62
2021/11/06 06:28:52;;;;;;;15.50;5.10;;;8.60;99.90;;;;;;5008825;28;20202;-62
2021/11/06 06:31:17;;;;;;;14.13;5.15;;;8.60;99.90;;;;;;5004463;28;20134;-63
2021/11/06 06:33:43;;;;;;;18.65;4.95;;;8.60;99.90;;;;;;5013460;28;20030;-63
2021/11/06 06:36:09;;;;;;;11.15;4.55;;;8.60;99.90;;;;;;5011259;28;20800;-63
2021/11/06 06:38:34;;;;;;;13.63;5.18;;;8.70;99.90;;;;;;5016486;28;20855;-62
2021/11/06 06:41:00;;;;;;;9.57;4.85;;;8.70;99.90;;;;;;5011943;28;20617;-63
2021/11/06 06:43:25;;;;;;;11.82;4.65;;;8.80;99.90;;;;;;5006861;28;20449;-63
2021/11/06 06:45:51;;;;;;;11.38;4.60;;;8.80;99.90;;;;;;5013278;28;20030;-63
2021/11/06 06:48:17;;;;;;;12.93;4.55;;;8.90;99.90;;;;;;5011058;28;20473;-63
2021/11/06 06:50:46;;;;;;;10.40;4.43;;;8.90;99.90;;;;;;5016078;28;20446;-63
2021/11/06 06:53:11;;;;;;;10.48;4.47;;;9.10;99.90;;;;;;5013039;28;20041;-63
2021/11/06 06:55:37;;;;;;;13.70;4.70;;;9.00;99.90;;;;;;5007252;28;20456;-63
2021/11/06 06:58:02;;;;;;;14.88;5.03;;;9.00;99.90;;;;;;5014108;28;20086;-63
2021/11/06 07:00:28;;;;;;;13.27;5.22;;;9.00;99.90;;;;;;5003661;28;20044;-62
2021/11/06 07:02:53;;;;;;;9.60;4.68;;;9.00;99.90;;;;;;5008614;28;20045;-63
2021/11/06 07:05:19;;;;;;;13.15;5.15;;;9.00;99.90;;;;;;5014411;28;20114;-62
2021/11/06 07:07:44;;;;;;;12.00;4.57;;;9.00;99.90;;;;;;5007520;28;20034;-62
2021/11/06 07:10:10;;;;;;;11.18;5.10;;;9.00;99.90;;;;;;5011525;28;20366;-62
2021/11/06 07:12:36;;;;;;;11.55;5.13;;;9.00;99.90;;;;;;5012318;28;20081;-63
2021/11/06 07:15:01;;;;;;;12.32;5.68;;;9.00;99.90;;;;;;5015292;28;20528;-62
2021/11/06 07:17:27;;;;;;;12.73;5.65;;;9.00;99.90;;;;;;5016934;28;20030;-63
2021/11/06 07:19:52;;;;;;;12.00;5.50;;;9.00;99.90;;;;;;5076962;28;20065;-63
2021/11/06 07:22:18;;;;;;;12.55;5.35;;;9.10;99.90;;;;;;5012675;28;20037;-62
2021/11/06 07:24:44;;;;;;;16.17;6.28;;;9.10;99.90;;;;;;5016875;28;20128;-63
2021/11/06 07:27:09;;;;;;;11.52;5.97;;;9.10;99.90;;;;;;5008909;28;20038;-63
2021/11/06 07:29:35;;;;;;;13.98;5.82;;;9.10;99.90;;;;;;5013915;28;20090;-63
2021/11/06 07:32:00;;;;;;;18.23;6.03;;;9.10;99.90;;;;;;5082392;28;20041;-63
2021/11/06 07:34:25;;;;;;;13.65;5.78;;;9.10;99.90;;;;;;5012281;28;20034;-63
2021/11/06 07:36:51;;;;;;;19.40;6.78;;;9.10;99.90;;;;;;5008642;28;20026;-63
2021/11/06 07:39:16;;;;;;;16.27;5.93;;;9.10;99.90;;;;;;5012701;28;20486;-63
2021/11/06 07:41:42;;;;;;;23.48;6.82;;;9.10;99.90;;;;;;5013868;28;20037;-63
2021/11/06 07:44:07;;;;;;;17.33;6.47;;;9.10;99.90;;;;;;5009785;28;20034;-63
2021/11/06 07:46:33;;;;;;;17.92;7.13;;;9.10;99.90;;;;;;5010134;28;20153;-63
2021/11/06 07:48:58;;;;;;;12.25;5.93;;;9.10;99.90;;;;;;5013637;28;20107;-63
2021/11/06 07:51:24;;;;;;;20.40;8.52;;;9.20;99.90;;;;;;5014747;28;20042;-63
2021/11/06 07:53:49;;;;;;;26.40;12.90;;;9.20;99.90;;;;;;5009220;28;20066;-63
2021/11/06 07:56:15;;;;;;;13.30;7.07;;;9.30;99.90;;;;;;5007538;28;20037;-63
2021/11/06 07:58:40;;;;;;;12.70;5.95;;;9.30;99.90;;;;;;5011928;28;20105;-63
2021/11/06 08:01:06;;;;;;;13.65;9.05;;;9.30;99.90;;;;;;5002938;28;20506;-63
2021/11/06 08:03:31;;;;;;;8.93;5.75;;;9.30;99.90;;;;;;5011398;28;20033;-63
2021/11/06 08:05:57;;;;;;;19.00;7.90;;;9.30;99.90;;;;;;5009773;28;20496;-63
2021/11/06 08:08:23;;;;;;;16.83;6.50;;;9.30;99.90;;;;;;5012506;28;20370;-63
2021/11/06 08:10:48;;;;;;;13.65;6.40;;;9.30;99.90;;;;;;5011056;28;20056;-63
2021/11/06 08:13:14;;;;;;;12.70;6.13;;;9.20;99.90;;;;;;5014136;28;20045;-63
2021/11/06 08:15:40;;;;;;;16.48;8.38;;;9.30;99.90;;;;;;5005376;28;20042;-62
2021/11/06 08:18:05;;;;;;;14.63;8.32;;;9.30;99.90;;;;;;5008474;28;20502;-64
2021/11/06 08:20:31;;;;;;;13.93;7.65;;;9.30;99.90;;;;;;5008626;28;20045;-63
2021/11/06 08:22:57;;;;;;;15.20;7.78;;;9.30;99.90;;;;;;5008271;28;20034;-64
2021/11/06 08:25:23;;;;;;;19.73;11.85;;;9.30;99.90;;;;;;5076099;28;20477;-63
2021/11/06 08:27:48;;;;;;;15.98;6.80;;;9.30;99.90;;;;;;5071676;28;20026;-63
2021/11/06 08:30:14;;;;;;;16.00;7.97;;;9.40;99.90;;;;;;5003902;28;20769;-62
2021/11/06 08:32:39;;;;;;;16.90;9.48;;;9.50;99.90;;;;;;5004820;28;20128;-62
2021/11/06 08:35:06;;;;;;;15.27;8.80;;;9.50;99.90;;;;;;5009136;28;20056;-64
2021/11/06 08:37:32;;;;;;;14.32;7.65;;;9.60;99.90;;;;;;5008013;28;20072;-68
2021/11/06 08:39:57;;;;;;;13.88;7.38;;;9.70;99.90;;;;;;5003928;28;20171;-70
2021/11/06 08:42:23;;;;;;;14.65;8.35;;;9.60;99.90;;;;;;5002867;28;20061;-69
2021/11/06 08:44:49;;;;;;;14.38;6.70;;;9.70;99.90;;;;;;5006816;28;20568;-71
2021/11/06 08:47:14;;;;;;;23.75;10.07;;;9.70;99.90;;;;;;5012652;28;20038;-70
2021/11/06 08:49:40;;;;;;;21.08;9.50;;;9.90;99.90;;;;;;5012915;28;20438;-69
2021/11/06 08:52:05;;;;;;;18.65;7.90;;;10.10;99.90;;;;;;5006732;28;20045;-70
2021/11/06 08:54:31;;;;;;;25.77;10.73;;;10.10;99.90;;;;;;5010000;28;20033;-71
2021/11/06 08:56:56;;;;;;;14.00;5.97;;;10.10;99.90;;;;;;5014506;28;20449;-68
2021/11/06 08:59:22;;;;;;;16.77;6.63;;;10.10;99.90;;;;;;5010545;28;20044;-68
2021/11/06 09:01:47;;;;;;;26.85;9.43;;;10.10;99.90;;;;;;5011351;28;20037;-68
2021/11/06 09:04:14;;;;;;;232.10;50.03;;;10.00;99.90;;;;;;5012423;28;20129;-68
2021/11/06 09:06:39;;;;;;;82.57;20.67;;;10.00;99.90;;;;;;5014396;28;20465;-68
2021/11/06 09:09:05;;;;;;;22.05;7.03;;;9.90;99.90;;;;;;5004517;28;20513;-69
2021/11/06 09:11:30;;;;;;;43.03;12.07;;;9.90;99.90;;;;;;5007400;28;20030;-68
2021/11/06 09:13:56;;;;;;;46.05;12.95;;;9.80;99.90;;;;;;5002228;28;20030;-68
2021/11/06 09:16:22;;;;;;;88.38;20.92;;;9.80;99.90;;;;;;4998048;28;20037;-68
2021/11/06 09:18:47;;;;;;;61.88;17.27;;;9.80;99.90;;;;;;5006130;28;20026;-70
2021/11/06 09:21:14;;;;;;;34.08;12.25;;;9.90;99.90;;;;;;5004043;28;20669;-69
2021/11/06 09:23:40;;;;;;;26.92;9.52;;;9.90;99.90;;;;;;5008706;28;20734;-69
2021/11/06 09:26:05;;;;;;;17.35;6.55;;;10.10;99.90;;;;;;5013122;28;20044;-68
2021/11/06 09:28:37;;;;;;;12.70;5.10;;;10.10;99.90;;;;;;5004284;28;20042;-70
2021/11/06 09:31:02;;;;;;;28.08;10.55;;;10.20;99.90;;;;;;5012856;28;20026;-70
2021/11/06 09:33:28;;;;;;;11.63;5.03;;;10.20;99.90;;;;;;5004454;28;20089;-69
2021/11/06 09:35:53;;;;;;;10.82;5.43;;;10.40;99.90;;;;;;5009077;28;20033;-69
2021/11/06 09:38:19;;;;;;;29.83;11.07;;;10.50;99.90;;;;;;5005989;28;20068;-69
2021/11/06 09:40:45;;;;;;;42.65;11.63;;;10.80;99.90;;;;;;5010947;28;20083;-69
2021/11/06 09:43:11;;;;;;;37.97;10.43;;;10.70;99.90;;;;;;5067493;28;20037;-63
2021/11/06 09:45:36;;;;;;;18.15;6.57;;;10.70;99.90;;;;;;5006245;28;20053;-62
2021/11/06 09:48:02;;;;;;;37.83;12.13;;;10.60;99.90;;;;;;5009643;28;20483;-62
2021/11/06 09:50:28;;;;;;;35.75;14.15;;;10.70;99.90;;;;;;5012124;28;20040;-62
2021/11/06 09:52:56;;;;;;;10.60;5.20;;;10.70;99.90;;;;;;5012267;28;20030;-62
2021/11/06 09:55:21;;;;;;;9.50;4.57;;;10.80;99.90;;;;;;4999628;28;20044;-62
2021/11/06 09:57:47;;;;;;;8.05;4.28;;;11.00;99.90;;;;;;5008101;28;20037;-62
2021/11/06 10:00:12;;;;;;;8.73;3.92;;;11.30;99.90;;;;;;5076526;28;20033;-62
2021/11/06 10:02:38;;;;;;;13.85;4.13;;;11.50;99.90;;;;;;5001681;28;20803;-62
2021/11/06 10:05:03;;;;;;;9.68;3.85;;;11.60;99.90;;;;;;5076174;28;20033;-62
2021/11/06 10:07:29;;;;;;;8.10;3.50;;;11.90;99.90;;;;;;5008477;28;20037;-62
2021/11/06 10:09:54;;;;;;;8.05;4.18;;;12.10;99.90;;;;;;5080974;28;20046;-62
2021/11/06 10:12:20;;;;;;;8.23;4.65;;;12.10;99.90;;;;;;5005479;28;20040;-62
2021/11/06 10:14:45;;;;;;;10.02;4.22;;;12.10;99.90;;;;;;5006280;28;20457;-62
2021/11/06 10:17:11;;;;;;;7.90;3.13;;;12.20;99.90;;;;;;5011444;28;20029;-62
2021/11/06 10:19:36;;;;;;;7.57;3.65;;;12.30;99.90;;;;;;5014164;28;20673;-63
2021/11/06 10:22:01;;;;;;;6.80;3.70;;;12.30;99.90;;;;;;5011397;28;20033;-61
2021/11/06 10:24:27;;;;;;;12.50;4.75;;;12.30;99.90;;;;;;5007497;28;20030;-62
2021/11/06 10:26:52;;;;;;;11.60;5.47;;;12.20;99.90;;;;;;5005059;28;20080;-61
2021/11/06 10:29:18;;;;;;;12.55;7.63;;;12.10;99.90;;;;;;4998935;28;20030;-62
2021/11/06 10:31:43;;;;;;;15.20;3.80;;;12.00;99.90;;;;;;5003866;28;20025;-62
2021/11/06 10:34:09;;;;;;;11.90;3.28;;;11.90;99.90;;;;;;5072781;28;20386;-61
2021/11/06 10:36:34;;;;;;;8.98;3.40;;;11.60;99.90;;;;;;5067866;28;20065;-61
2021/11/06 10:39:00;;;;;;;6.63;3.45;;;11.50;99.90;;;;;;5001461;28;20723;-62
2021/11/06 10:41:25;;;;;;;9.88;3.45;;;11.40;99.90;;;;;;5007385;28;20460;-61
2021/11/06 10:43:51;;;;;;;7.45;3.50;;;11.30;99.90;;;;;;5006353;28;20044;-61
2021/11/06 10:46:16;;;;;;;5.75;3.00;;;11.20;99.90;;;;;;5001667;28;20393;-62
2021/11/06 10:48:42;;;;;;;8.60;3.35;;;11.20;99.90;;;;;;5004490;28;20212;-61
2021/11/06 10:51:08;;;;;;;7.15;4.18;;;11.10;99.90;;;;;;5007460;28;20025;-61
2021/11/06 10:53:33;;;;;;;12.88;4.20;;;11.10;99.90;;;;;;5003928;28;20030;-62
2021/11/06 10:55:59;;;;;;;6.82;3.53;;;11.00;99.90;;;;;;5001936;28;20523;-61
2021/11/06 10:58:24;;;;;;;6.60;3.30;;;11.00;99.90;;;;;;5005675;28;20057;-62
2021/11/06 11:00:50;;;;;;;6.60;3.20;;;10.90;99.90;;;;;;5008551;28;20034;-62
2021/11/06 11:03:16;;;;;;;4.75;2.78;;;10.90;99.90;;;;;;5005576;28;20044;-62
2021/11/06 11:05:41;;;;;;;6.43;3.13;;;10.90;99.90;;;;;;5002115;28;20027;-61
2021/11/06 11:08:07;;;;;;;9.18;3.45;;;11.00;99.90;;;;;;5005297;28;20087;-62
2021/11/06 11:10:32;;;;;;;12.48;3.97;;;11.00;99.90;;;;;;5008420;28;20094;-62
2021/11/06 11:12:58;;;;;;;9.73;3.30;;;11.10;99.90;;;;;;5005515;28;20042;-62
2021/11/06 11:15:23;;;;;;;6.43;2.83;;;11.10;99.90;;;;;;5001715;28;20042;-61
2021/11/06 11:17:51;;;;;;;7.38;2.70;;;11.20;99.90;;;;;;5008360;28;20033;-61
2021/11/06 11:20:17;;;;;;;7.97;2.88;;;11.30;99.90;;;;;;5007847;28;20493;-68
2021/11/06 11:22:42;;;;;;;12.85;3.60;;;11.40;99.90;;;;;;5001556;28;20022;-69
2021/11/06 11:25:08;;;;;;;7.95;3.75;;;11.40;99.90;;;;;;5006036;28;20588;-69
2021/11/06 11:27:33;;;;;;;7.97;3.47;;;11.50;99.90;;;;;;5009408;28;20493;-69
2021/11/06 11:29:59;;;;;;;13.68;6.10;;;11.50;99.90;;;;;;5073444;28;20065;-69
2021/11/06 11:32:25;;;;;;;7.30;3.65;;;11.60;99.90;;;;;;5006835;28;20041;-69
2021/11/06 11:34:50;;;;;;;6.78;4.70;;;11.60;99.90;;;;;;5007244;28;20549;-69
2021/11/06 11:37:16;;;;;;;15.43;11.60;;;11.70;99.90;;;;;;5011298;28;20048;-69
2021/11/06 11:39:41;;;;;;;57.15;23.60;;;11.80;99.90;;;;;;5006691;28;20044;-70
2021/11/06 11:42:07;;;;;;;62.33;24.70;;;11.90;99.90;;;;;;5005654;28;20057;-70
2021/11/06 11:44:33;;;;;;;150.70;51.20;;;11.90;99.90;;;;;;5009113;28;20048;-70
2021/11/06 11:46:58;;;;;;;56.67;21.35;;;12.00;99.90;;;;;;5005178;28;20182;-70
2021/11/06 11:49:24;;;;;;;26.58;16.10;;;12.00;99.90;;;;;;5001296;28;20049;-70
2021/11/06 11:51:49;;;;;;;20.48;13.52;;;12.00;99.90;;;;;;5000915;28;20473;-71
2021/11/06 11:54:15;;;;;;;12.95;8.10;;;12.10;99.90;;;;;;5006908;28;20109;-69
2021/11/06 11:56:40;;;;;;;18.30;11.02;;;12.00;99.90;;;;;;5004103;28;20026;-70
2021/11/06 11:59:06;;;;;;;14.43;9.77;;;12.00;99.90;;;;;;5065682;28;20029;-70
2021/11/06 12:01:31;;;;;;;15.63;7.95;;;11.90;99.90;;;;;;5004682;28;20030;-69
2021/11/06 12:03:57;;;;;;;16.65;7.72;;;11.80;99.90;;;;;;5008011;28;20056;-69
2021/11/06 12:06:23;;;;;;;40.30;22.52;;;11.80;99.90;;;;;;5004319;28;20091;-69
2021/11/06 12:08:48;;;;;;;25.83;15.63;;;11.90;99.90;;;;;;5001442;28;20040;-69
2021/11/06 12:11:14;;;;;;;16.83;9.45;;;11.80;99.90;;;;;;5003775;28;20078;-69
2021/11/06 12:13:40;;;;;;;15.75;7.80;;;11.80;99.90;;;;;;5003567;28;20667;-69
2021/11/06 12:16:06;;;;;;;8.13;4.30;;;11.90;99.90;;;;;;5002085;28;20629;-69
2021/11/06 12:18:31;;;;;;;23.13;11.95;;;12.00;99.90;;;;;;4999859;28;20049;-71
2021/11/06 12:20:57;;;;;;;25.83;12.35;;;12.10;99.90;;;;;;5006049;28;20034;-69
2021/11/06 12:23:22;;;;;;;16.60;8.35;;;12.30;99.90;;;;;;5015591;28;20030;-70
2021/11/06 12:25:48;;;;;;;18.45;9.88;;;12.50;99.90;;;;;;5001631;28;20026;-69
2021/11/06 12:28:13;;;;;;;17.38;9.32;;;12.40;99.90;;;;;;5000526;28;20022;-70
2021/11/06 12:30:39;;;;;;;7.00;2.70;;;12.30;99.90;;;;;;5006339;28;20048;-69
2021/11/06 12:33:06;;;;;;;20.58;10.43;;;12.30;99.90;;;;;;5073822;28;20909;-70
2021/11/06 12:35:31;;;;;;;12.13;5.40;;;12.40;99.90;;;;;;5001827;28;20063;-69